sensor_id;sensor_type;location;lat;lon;timestamp;pressure;altitude;pressure_sealevel;temperature;humidity
70468;BME280;57934;51.532;7.684;2023-05-12T00:01:38;100186.69;;;12.73;100.00
70468;BME280;57934;51.532;7.684;2023-05-12T00:04:04;100176.72;;;12.68;100.00
70468;BME280;57934;51.532;7.684;2023-05-12T00:06:31;100179.78;;;12.72;100.00
70468;BME280;57934;51.532;7.684;2023-05-12T00:08:57;100180.19;;;12.69;100.00
70468;BME280;57934;51.532;7.684;2023-05-12T00:11:23;100181.22;;;12.68;100.00
70468;BME280;57934;51.532;7.684;2023-05-12T00:13:49;100176.50;;;12.76;100.00
70468;BME280;57934;51.532;7.684;2023-05-12T00:16:15;100178.75;;;12.73;100.00
70468;BME280;57934;51.532;7.684;2023-05-12T00:18:44;100188.28;;;12.74;100.00
70468;BME280;57934;51.532;7.684;2023-05-12T00:21:10;100191.81;;;12.68;100.00
70468;BME280;57934;51.532;7.684;2023-05-12T00:23:37;100182.63;;;12.63;100.00
70468;BME280;57934;51.532;7.684;2023-05-12T00:26:03;100191.00;;;12.67;100.00
70468;BME280;57934;51.532;7.684;2023-05-12T00:28:29;100192.22;;;12.58;100.00
70468;BME280;57934;51.532;7.684;2023-05-12T00:31:00;100185.91;;;12.59;100.00
70468;BME280;57934;51.532;7.684;2023-05-12T00:33:26;100190.22;;;12.53;100.00
70468;BME280;57934;51.532;7.684;2023-05-12T00:35:52;100194.06;;;12.57;100.00
70468;BME280;57934;51.532;7.684;2023-05-12T00:38:18;100192.25;;;12.51;100.00
70468;BME280;57934;51.532;7.684;2023-05-12T00:40:44;100200.19;;;12.51;100.00
70468;BME280;57934;51.532;7.684;2023-05-12T00:43:11;100199.16;;;12.52;100.00
70468;BME280;57934;51.532;7.684;2023-05-12T00:45:37;100200.19;;;12.45;100.00
70468;BME280;57934;51.532;7.684;2023-05-12T00:48:05;100203.06;;;12.36;100.00
70468;BME280;57934;51.532;7.684;2023-05-12T00:50:31;100200.22;;;12.31;100.00
70468;BME280;57934;51.532;7.684;2023-05-12T00:52:59;100199.81;;;12.28;100.00
70468;BME280;57934;51.532;7.684;2023-05-12T00:55:25;100206.34;;;12.25;100.00
70468;BME280;57934;51.532;7.684;2023-05-12T00:57:52;100199.00;;;12.27;100.00
70468;BME280;57934;51.532;7.684;2023-05-12T01:00:19;100200.84;;;12.20;100.00
70468;BME280;57934;51.532;7.684;2023-05-12T01:02:47;100199.03;;;12.21;100.00
70468;BME280;57934;51.532;7.684;2023-05-12T01:05:13;100202.47;;;12.21;100.00
70468;BME280;57934;51.532;7.684;2023-05-12T01:07:40;100200.84;;;12.20;100.00
70468;BME280;57934;51.532;7.684;2023-05-12T01:10:20;100203.31;;;12.15;100.00
70468;BME280;57934;51.532;7.684;2023-05-12T01:12:46;100211.44;;;12.20;100.00
70468;BME280;57934;51.532;7.684;2023-05-12T01:15:14;100210.00;;;12.24;100.00
70468;BME280;57934;51.532;7.684;2023-05-12T01:17:46;100204.72;;;12.17;100.00
70468;BME280;57934;51.532;7.684;2023-05-12T01:20:16;100201.47;;;12.15;100.00
70468;BME280;57934;51.532;7.684;2023-05-12T01:22:45;100204.94;;;12.16;100.00
70468;BME280;57934;51.532;7.684;2023-05-12T01:25:13;100204.72;;;12.17;100.00
70468;BME280;57934;51.532;7.684;2023-05-12T01:27:41;100213.88;;;12.22;100.00
70468;BME280;57934;51.532;7.684;2023-05-12T01:30:09;100205.16;;;12.14;100.00
70468;BME280;57934;51.532;7.684;2023-05-12T01:32:37;100213.09;;;12.14;100.00
70468;BME280;57934;51.532;7.684;2023-05-12T01:35:05;100209.81;;;12.12;100.00
70468;BME280;57934;51.532;7.684;2023-05-12T01:37:33;100216.94;;;12.12;100.00
70468;BME280;57934;51.532;7.684;2023-05-12T01:40:02;100216.53;;;12.15;100.00
70468;BME280;57934;51.532;7.684;2023-05-12T01:42:28;100222.22;;;12.18;100.00
70468;BME280;57934;51.532;7.684;2023-05-12T01:44:54;100210.22;;;12.09;100.00
70468;BME280;57934;51.532;7.684;2023-05-12T01:47:21;100226.31;;;12.08;100.00
70468;BME280;57934;51.532;7.684;2023-05-12T01:50:07;100225.47;;;12.07;100.00
70468;BME280;57934;51.532;7.684;2023-05-12T01:52:34;100222.22;;;12.05;100.00
70468;BME280;57934;51.532;7.684;2023-05-12T01:55:00;100225.06;;;12.04;100.00
70468;BME280;57934;51.532;7.684;2023-05-12T01:57:31;100222.22;;;12.05;100.00
70468;BME280;57934;51.532;7.684;2023-05-12T01:59:59;100226.50;;;12.06;100.00
70468;BME280;57934;51.532;7.684;2023-05-12T02:02:26;100227.91;;;12.02;100.00
70468;BME280;57934;51.532;7.684;2023-05-12T02:04:52;100234.22;;;12.08;100.00
70468;BME280;57934;51.532;7.684;2023-05-12T02:07:18;100235.03;;;12.02;100.00
70468;BME280;57934;51.532;7.684;2023-05-12T02:09:45;100237.69;;;12.02;100.00
70468;BME280;57934;51.532;7.684;2023-05-12T02:12:12;100241.75;;;11.98;100.00
70468;BME280;57934;51.532;7.684;2023-05-12T02:14:38;100233.59;;;11.99;100.00
70468;BME280;57934;51.532;7.684;2023-05-12T02:17:04;100239.53;;;12.01;100.00
70468;BME280;57934;51.532;7.684;2023-05-12T02:19:31;100241.34;;;11.94;100.00
70468;BME280;57934;51.532;7.684;2023-05-12T02:21:58;100238.50;;;11.96;100.00
70468;BME280;57934;51.532;7.684;2023-05-12T02:24:24;100232.59;;;11.87;100.00
70468;BME280;57934;51.532;7.684;2023-05-12T02:26:50;100236.88;;;11.88;100.00
70468;BME280;57934;51.532;7.684;2023-05-12T02:29:16;100245.00;;;11.86;100.00
70468;BME280;57934;51.532;7.684;2023-05-12T02:31:43;100240.53;;;11.87;100.00
70468;BME280;57934;51.532;7.684;2023-05-12T02:34:16;100243.75;;;11.89;100.00
70468;BME280;57934;51.532;7.684;2023-05-12T02:36:42;100239.28;;;11.89;100.00
70468;BME280;57934;51.532;7.684;2023-05-12T02:39:10;100234.63;;;11.85;100.00
70468;BME280;57934;51.532;7.684;2023-05-12T02:41:36;100239.88;;;11.78;100.00
70468;BME280;57934;51.532;7.684;2023-05-12T02:44:02;100241.69;;;11.78;100.00
70468;BME280;57934;51.532;7.684;2023-05-12T02:46:29;100239.06;;;11.78;100.00
70468;BME280;57934;51.532;7.684;2023-05-12T02:48:55;100233.16;;;11.76;100.00
70468;BME280;57934;51.532;7.684;2023-05-12T02:51:21;100244.16;;;11.73;100.00
70468;BME280;57934;51.532;7.684;2023-05-12T02:53:47;100244.34;;;11.71;100.00
70468;BME280;57934;51.532;7.684;2023-05-12T02:56:14;100236.41;;;11.78;100.00
70468;BME280;57934;51.532;7.684;2023-05-12T02:58:41;100236.22;;;11.73;100.00
70468;BME280;57934;51.532;7.684;2023-05-12T03:01:07;100240.47;;;11.74;100.00
70468;BME280;57934;51.532;7.684;2023-05-12T03:03:33;100238.06;;;11.65;100.00
70468;BME280;57934;51.532;7.684;2023-05-12T03:05:59;100242.09;;;11.68;100.00
70468;BME280;57934;51.532;7.684;2023-05-12T03:08:25;100237.22;;;11.65;100.00
70468;BME280;57934;51.532;7.684;2023-05-12T03:10:52;100244.94;;;11.66;100.00
70468;BME280;57934;51.532;7.684;2023-05-12T03:13:19;100242.50;;;11.65;100.00
70468;BME280;57934;51.532;7.684;2023-05-12T03:15:45;100238.44;;;11.62;100.00
70468;BME280;57934;51.532;7.684;2023-05-12T03:18:11;100253.91;;;11.65;100.00
70468;BME280;57934;51.532;7.684;2023-05-12T03:20:37;100248.38;;;11.60;100.00
70468;BME280;57934;51.532;7.684;2023-05-12T03:23:04;100253.25;;;11.57;100.00
70468;BME280;57934;51.532;7.684;2023-05-12T03:25:30;100256.91;;;11.56;100.00
70468;BME280;57934;51.532;7.684;2023-05-12T03:27:56;100250.00;;;11.55;100.00
70468;BME280;57934;51.532;7.684;2023-05-12T03:30:23;100252.44;;;11.56;100.00
70468;BME280;57934;51.532;7.684;2023-05-12T03:32:49;100259.16;;;11.52;100.00
70468;BME280;57934;51.532;7.684;2023-05-12T03:35:15;100256.09;;;11.49;100.00
70468;BME280;57934;51.532;7.684;2023-05-12T03:37:41;100257.91;;;11.55;100.00
70468;BME280;57934;51.532;7.684;2023-05-12T03:40:08;100256.91;;;11.49;100.00
70468;BME280;57934;51.532;7.684;2023-05-12T03:42:34;100266.84;;;11.54;100.00
70468;BME280;57934;51.532;7.684;2023-05-12T03:45:00;100259.94;;;11.53;100.00
70468;BME280;57934;51.532;7.684;2023-05-12T03:47:26;100261.56;;;11.54;100.00
70468;BME280;57934;51.532;7.684;2023-05-12T03:49:53;100261.41;;;11.55;100.00
70468;BME280;57934;51.532;7.684;2023-05-12T03:52:19;100264.03;;;11.55;100.00
70468;BME280;57934;51.532;7.684;2023-05-12T03:54:45;100261.97;;;11.51;100.00
70468;BME280;57934;51.532;7.684;2023-05-12T03:57:11;100267.69;;;11.61;100.00
70468;BME280;57934;51.532;7.684;2023-05-12T03:59:37;100258.53;;;11.57;100.00
70468;BME280;57934;51.532;7.684;2023-05-12T04:02:03;100263.19;;;11.55;100.00
70468;BME280;57934;51.532;7.684;2023-05-12T04:04:32;100262.78;;;11.58;100.00
70468;BME280;57934;51.532;7.684;2023-05-12T04:06:58;100260.16;;;11.58;100.00
70468;BME280;57934;51.532;7.684;2023-05-12T04:09:24;100266.88;;;11.60;100.00
70468;BME280;57934;51.532;7.684;2023-05-12T04:11:50;100279.06;;;11.61;100.00
70468;BME280;57934;51.532;7.684;2023-05-12T04:14:16;100275.22;;;11.64;100.00
70468;BME280;57934;51.532;7.684;2023-05-12T04:16:43;100274.00;;;11.60;100.00
70468;BME280;57934;51.532;7.684;2023-05-12T04:19:09;100284.13;;;11.56;100.00
70468;BME280;57934;51.532;7.684;2023-05-12T04:21:35;100287.16;;;11.53;100.00
70468;BME280;57934;51.532;7.684;2023-05-12T04:24:01;100293.69;;;11.57;100.00
70468;BME280;57934;51.532;7.684;2023-05-12T04:26:31;100286.16;;;11.61;100.00
70468;BME280;57934;51.532;7.684;2023-05-12T04:28:58;100289.25;;;11.78;100.00
70468;BME280;57934;51.532;7.684;2023-05-12T04:31:24;100288.81;;;11.67;100.00
70468;BME280;57934;51.532;7.684;2023-05-12T04:33:51;100289.84;;;11.66;100.00
70468;BME280;57934;51.532;7.684;2023-05-12T04:36:17;100290.03;;;11.65;100.00
70468;BME280;57934;51.532;7.684;2023-05-12T04:38:43;100296.34;;;11.64;100.00
70468;BME280;57934;51.532;7.684;2023-05-12T04:41:11;100296.97;;;11.79;100.00
70468;BME280;57934;51.532;7.684;2023-05-12T04:43:37;100301.84;;;11.69;100.00
70468;BME280;57934;51.532;7.684;2023-05-12T04:46:04;100304.94;;;11.86;100.00
70468;BME280;57934;51.532;7.684;2023-05-12T04:48:31;100306.31;;;11.75;100.00
70468;BME280;57934;51.532;7.684;2023-05-12T04:50:58;100317.09;;;11.74;100.00
70468;BME280;57934;51.532;7.684;2023-05-12T04:53:25;100312.22;;;11.77;100.00
70468;BME280;57934;51.532;7.684;2023-05-12T04:55:52;100325.81;;;11.74;100.00
70468;BME280;57934;51.532;7.684;2023-05-12T04:58:18;100331.72;;;11.83;100.00
70468;BME280;57934;51.532;7.684;2023-05-12T05:00:45;100334.16;;;11.78;100.00
70468;BME280;57934;51.532;7.684;2023-05-12T05:03:11;100341.88;;;11.79;100.00
70468;BME280;57934;51.532;7.684;2023-05-12T05:05:38;100339.69;;;11.89;100.00
70468;BME280;57934;51.532;7.684;2023-05-12T05:08:04;100344.56;;;11.86;100.00
70468;BME280;57934;51.532;7.684;2023-05-12T05:10:30;100350.09;;;11.91;100.00
70468;BME280;57934;51.532;7.684;2023-05-12T05:12:57;100352.50;;;11.92;100.00
70468;BME280;57934;51.532;7.684;2023-05-12T05:15:24;100365.75;;;11.99;100.00
70468;BME280;57934;51.532;7.684;2023-05-12T05:17:50;100362.69;;;11.96;100.00
70468;BME280;57934;51.532;7.684;2023-05-12T05:20:16;100362.28;;;11.99;100.00
70468;BME280;57934;51.532;7.684;2023-05-12T05:22:43;100365.94;;;11.91;100.00
70468;BME280;57934;51.532;7.684;2023-05-12T05:25:10;100368.19;;;12.01;100.00
70468;BME280;57934;51.532;7.684;2023-05-12T05:27:36;100380.84;;;12.18;100.00
70468;BME280;57934;51.532;7.684;2023-05-12T05:30:06;100381.41;;;12.14;100.00
70468;BME280;57934;51.532;7.684;2023-05-12T05:32:34;100371.47;;;12.16;100.00
70468;BME280;57934;51.532;7.684;2023-05-12T05:35:02;100373.09;;;12.17;100.00
70468;BME280;57934;51.532;7.684;2023-05-12T05:37:29;100380.84;;;12.25;100.00
70468;BME280;57934;51.532;7.684;2023-05-12T05:39:56;100380.84;;;12.18;100.00
70468;BME280;57934;51.532;7.684;2023-05-12T05:42:22;100380.63;;;12.20;100.00
70468;BME280;57934;51.532;7.684;2023-05-12T05:44:49;100391.59;;;12.17;100.00
70468;BME280;57934;51.532;7.684;2023-05-12T05:47:16;100391.00;;;12.15;100.00
70468;BME280;57934;51.532;7.684;2023-05-12T05:49:42;100391.78;;;12.02;100.00
70468;BME280;57934;51.532;7.684;2023-05-12T05:52:09;100397.28;;;12.01;100.00
70468;BME280;57934;51.532;7.684;2023-05-12T05:54:35;100395.47;;;12.08;100.00
70468;BME280;57934;51.532;7.684;2023-05-12T05:57:01;100395.66;;;12.06;100.00
70468;BME280;57934;51.532;7.684;2023-05-12T05:59:28;100401.00;;;12.33;100.00
70468;BME280;57934;51.532;7.684;2023-05-12T06:01:54;100397.53;;;12.32;100.00
70468;BME280;57934;51.532;7.684;2023-05-12T06:04:20;100402.59;;;12.34;100.00
70468;BME280;57934;51.532;7.684;2023-05-12T06:06:46;100404.06;;;12.43;100.00
70468;BME280;57934;51.532;7.684;2023-05-12T06:09:13;100407.91;;;12.47;100.00
70468;BME280;57934;51.532;7.684;2023-05-12T06:11:40;100413.22;;;12.54;100.00
70468;BME280;57934;51.532;7.684;2023-05-12T06:14:06;100417.47;;;12.61;100.00
70468;BME280;57934;51.532;7.684;2023-05-12T06:16:32;100413.41;;;12.59;100.00
70468;BME280;57934;51.532;7.684;2023-05-12T06:18:59;100419.53;;;12.46;100.00
70468;BME280;57934;51.532;7.684;2023-05-12T06:21:25;100429.06;;;12.40;100.00
70468;BME280;57934;51.532;7.684;2023-05-12T06:23:51;100426.78;;;12.24;100.00
70468;BME280;57934;51.532;7.684;2023-05-12T06:26:19;100433.31;;;12.28;100.00
70468;BME280;57934;51.532;7.684;2023-05-12T06:28:46;100431.09;;;12.45;100.00
70468;BME280;57934;51.532;7.684;2023-05-12T06:31:13;100428.69;;;12.50;100.00
70468;BME280;57934;51.532;7.684;2023-05-12T06:33:39;100432.94;;;12.45;100.00
70468;BME280;57934;51.532;7.684;2023-05-12T06:36:05;100432.13;;;12.44;100.00
70468;BME280;57934;51.532;7.684;2023-05-12T06:38:32;100436.78;;;12.42;100.00
70468;BME280;57934;51.532;7.684;2023-05-12T06:40:58;100438.03;;;12.39;100.00
70468;BME280;57934;51.532;7.684;2023-05-12T06:43:24;100438.84;;;12.40;100.00
70468;BME280;57934;51.532;7.684;2023-05-12T06:45:54;100436.59;;;12.37;100.00
70468;BME280;57934;51.532;7.684;2023-05-12T06:48:21;100446.38;;;12.50;100.00
70468;BME280;57934;51.532;7.684;2023-05-12T06:50:48;100455.50;;;12.40;100.00
70468;BME280;57934;51.532;7.684;2023-05-12T06:53:14;100460.78;;;12.34;100.00
70468;BME280;57934;51.532;7.684;2023-05-12T06:55:40;100454.09;;;12.51;100.00
70468;BME280;57934;51.532;7.684;2023-05-12T06:58:08;100449.41;;;12.60;100.00
70468;BME280;57934;51.532;7.684;2023-05-12T07:00:34;100453.72;;;12.68;100.00
70468;BME280;57934;51.532;7.684;2023-05-12T07:03:00;100463.50;;;12.67;100.00
70468;BME280;57934;51.532;7.684;2023-05-12T07:05:26;100455.34;;;12.88;100.00
70468;BME280;57934;51.532;7.684;2023-05-12T07:07:52;100457.56;;;12.92;100.00
70468;BME280;57934;51.532;7.684;2023-05-12T07:10:18;100452.91;;;12.94;100.00
70468;BME280;57934;51.532;7.684;2023-05-12T07:12:46;100453.53;;;13.02;100.00
70468;BME280;57934;51.532;7.684;2023-05-12T07:15:12;100453.13;;;12.99;100.00
70468;BME280;57934;51.532;7.684;2023-05-12T07:17:38;100456.75;;;13.04;100.00
70468;BME280;57934;51.532;7.684;2023-05-12T07:20:04;100461.44;;;13.16;100.00
70468;BME280;57934;51.532;7.684;2023-05-12T07:22:31;100458.78;;;13.29;100.00
70468;BME280;57934;51.532;7.684;2023-05-12T07:24:58;100463.06;;;13.23;100.00
70468;BME280;57934;51.532;7.684;2023-05-12T07:27:24;100461.84;;;13.32;100.00
70468;BME280;57934;51.532;7.684;2023-05-12T07:29:50;100464.88;;;13.23;100.00
70468;BME280;57934;51.532;7.684;2023-05-12T07:32:16;100471.38;;;13.47;100.00
70468;BME280;57934;51.532;7.684;2023-05-12T07:34:42;100469.09;;;13.64;99.56
70468;BME280;57934;51.532;7.684;2023-05-12T07:37:08;100471.91;;;13.75;97.73
70468;BME280;57934;51.532;7.684;2023-05-12T07:39:34;100482.13;;;13.65;97.74
70468;BME280;57934;51.532;7.684;2023-05-12T07:42:00;100473.28;;;13.91;96.70
70468;BME280;57934;51.532;7.684;2023-05-12T07:44:26;100484.47;;;14.00;95.68
70468;BME280;57934;51.532;7.684;2023-05-12T07:46:53;100468.13;;;14.03;94.54
70468;BME280;57934;51.532;7.684;2023-05-12T07:49:19;100471.47;;;14.30;93.89
70468;BME280;57934;51.532;7.684;2023-05-12T07:51:46;100477.41;;;14.64;92.15
70468;BME280;57934;51.532;7.684;2023-05-12T07:54:12;100480.06;;;14.64;90.55
70468;BME280;57934;51.532;7.684;2023-05-12T07:56:38;100478.66;;;14.86;90.91
70468;BME280;57934;51.532;7.684;2023-05-12T07:59:04;100482.84;;;15.00;88.67
70468;BME280;57934;51.532;7.684;2023-05-12T08:01:31;100487.06;;;15.51;87.80
70468;BME280;57934;51.532;7.684;2023-05-12T08:03:57;100484.09;;;16.15;84.61
70468;BME280;57934;51.532;7.684;2023-05-12T08:06:23;100493.13;;;15.95;83.67
70468;BME280;57934;51.532;7.684;2023-05-12T08:08:49;100495.50;;;15.67;84.08
70468;BME280;57934;51.532;7.684;2023-05-12T08:11:15;100494.09;;;15.83;84.84
70468;BME280;57934;51.532;7.684;2023-05-12T08:13:41;100484.34;;;15.95;84.93
70468;BME280;57934;51.532;7.684;2023-05-12T08:16:08;100494.88;;;16.20;83.42
70468;BME280;57934;51.532;7.684;2023-05-12T08:18:34;100496.84;;;15.94;83.71
70468;BME280;57934;51.532;7.684;2023-05-12T08:21:00;100485.63;;;15.74;84.61
70468;BME280;57934;51.532;7.684;2023-05-12T08:23:26;100492.47;;;15.45;83.88
70468;BME280;57934;51.532;7.684;2023-05-12T08:25:52;100489.88;;;15.57;84.65
70468;BME280;57934;51.532;7.684;2023-05-12T08:28:18;100492.41;;;15.88;83.74
70468;BME280;57934;51.532;7.684;2023-05-12T08:30:45;100492.25;;;16.02;83.30
70468;BME280;57934;51.532;7.684;2023-05-12T08:33:11;100496.41;;;16.28;83.73
70468;BME280;57934;51.532;7.684;2023-05-12T08:35:37;100508.50;;;16.42;80.80
70468;BME280;57934;51.532;7.684;2023-05-12T08:38:04;100500.16;;;16.08;81.81
70468;BME280;57934;51.532;7.684;2023-05-12T08:40:33;100507.00;;;15.61;83.39
70468;BME280;57934;51.532;7.684;2023-05-12T08:43:23;100509.84;;;15.84;83.28
70468;BME280;57934;51.532;7.684;2023-05-12T08:45:55;100517.09;;;15.77;83.44
70468;BME280;57934;51.532;7.684;2023-05-12T08:48:26;100513.56;;;15.83;82.96
70468;BME280;57934;51.532;7.684;2023-05-12T08:50:54;100517.75;;;15.72;83.33
70468;BME280;57934;51.532;7.684;2023-05-12T08:53:23;100519.97;;;15.32;84.37
70468;BME280;57934;51.532;7.684;2023-05-12T08:55:50;100516.06;;;15.35;85.59
70468;BME280;57934;51.532;7.684;2023-05-12T08:58:17;100513.88;;;15.68;83.97
70468;BME280;57934;51.532;7.684;2023-05-12T09:00:43;100513.66;;;15.51;85.40
70468;BME280;57934;51.532;7.684;2023-05-12T09:03:12;100514.66;;;15.50;84.34
70468;BME280;57934;51.532;7.684;2023-05-12T09:05:39;100512.88;;;15.88;82.92
70468;BME280;57934;51.532;7.684;2023-05-12T09:08:08;100515.91;;;15.91;82.21
70468;BME280;57934;51.532;7.684;2023-05-12T09:10:35;100511.28;;;16.17;81.75
70468;BME280;57934;51.532;7.684;2023-05-12T09:13:34;100519.34;;;16.10;80.35
70468;BME280;57934;51.532;7.684;2023-05-12T09:16:03;100514.59;;;16.31;81.01
70468;BME280;57934;51.532;7.684;2023-05-12T09:18:49;100520.84;;;16.66;78.60
70468;BME280;57934;51.532;7.684;2023-05-12T09:21:15;100516.41;;;16.90;79.54
70468;BME280;57934;51.532;7.684;2023-05-12T09:23:58;100522.38;;;17.28;76.60
70468;BME280;57934;51.532;7.684;2023-05-12T09:26:26;100515.28;;;17.33;76.61
70468;BME280;57934;51.532;7.684;2023-05-12T09:29:02;100512.75;;;17.38;76.41
70468;BME280;57934;51.532;7.684;2023-05-12T09:31:31;100510.53;;;17.47;75.76
70468;BME280;57934;51.532;7.684;2023-05-12T09:33:57;100503.81;;;17.56;76.13
70468;BME280;57934;51.532;7.684;2023-05-12T09:36:24;100513.75;;;17.73;75.17
70468;BME280;57934;51.532;7.684;2023-05-12T09:41:30;100514.59;;;17.50;74.96
70468;BME280;57934;51.532;7.684;2023-05-12T09:43:58;100510.59;;;17.99;74.29
70468;BME280;57934;51.532;7.684;2023-05-12T09:46:24;100506.00;;;18.23;73.03
70468;BME280;57934;51.532;7.684;2023-05-12T09:48:54;100517.47;;;18.98;69.41
70468;BME280;57934;51.532;7.684;2023-05-12T09:51:21;100514.00;;;19.53;67.41
70468;BME280;57934;51.532;7.684;2023-05-12T09:53:47;100515.09;;;20.18;65.52
70468;BME280;57934;51.532;7.684;2023-05-12T09:56:14;100515.53;;;20.91;63.17
70468;BME280;57934;51.532;7.684;2023-05-12T09:58:47;100521.50;;;23.02;57.89
70468;BME280;57934;51.532;7.684;2023-05-12T10:01:16;100513.69;;;23.31;56.05
70468;BME280;57934;51.532;7.684;2023-05-12T10:03:47;100526.53;;;21.27;58.43
70468;BME280;57934;51.532;7.684;2023-05-12T10:06:18;100520.38;;;21.68;59.27
70468;BME280;57934;51.532;7.684;2023-05-12T10:08:53;100526.41;;;21.06;59.43
70468;BME280;57934;51.532;7.684;2023-05-12T10:11:22;100510.34;;;20.25;62.90
70468;BME280;57934;51.532;7.684;2023-05-12T10:13:49;100522.22;;;20.88;61.49
70468;BME280;57934;51.532;7.684;2023-05-12T10:16:15;100517.38;;;21.23;60.40
70468;BME280;57934;51.532;7.684;2023-05-12T10:18:42;100516.38;;;22.59;59.44
70468;BME280;57934;51.532;7.684;2023-05-12T10:21:12;100510.31;;;24.79;54.40
70468;BME280;57934;51.532;7.684;2023-05-12T10:23:39;100502.19;;;23.95;52.23
70468;BME280;57934;51.532;7.684;2023-05-12T10:26:09;100505.50;;;25.82;49.47
70468;BME280;57934;51.532;7.684;2023-05-12T10:28:36;100501.25;;;24.65;49.76
70468;BME280;57934;51.532;7.684;2023-05-12T10:31:04;100501.41;;;25.08;48.81
70468;BME280;57934;51.532;7.684;2023-05-12T10:33:32;100498.31;;;25.49;48.85
70468;BME280;57934;51.532;7.684;2023-05-12T10:35:59;100496.47;;;25.68;47.34
70468;BME280;57934;51.532;7.684;2023-05-12T10:38:25;100496.81;;;25.85;48.22
70468;BME280;57934;51.532;7.684;2023-05-12T10:40:58;100498.16;;;24.76;48.28
70468;BME280;57934;51.532;7.684;2023-05-12T10:43:28;100504.38;;;23.83;52.54
70468;BME280;57934;51.532;7.684;2023-05-12T10:46:17;100496.25;;;22.93;54.38
70468;BME280;57934;51.532;7.684;2023-05-12T10:51:30;100499.16;;;23.32;53.28
70468;BME280;57934;51.532;7.684;2023-05-12T10:56:27;100495.06;;;23.50;51.30
70468;BME280;57934;51.532;7.684;2023-05-12T11:02:05;100502.38;;;23.29;51.80
70468;BME280;57934;51.532;7.684;2023-05-12T11:07:10;100492.06;;;23.62;52.41
70468;BME280;57934;51.532;7.684;2023-05-12T11:09:40;100499.47;;;22.64;52.83
70468;BME280;57934;51.532;7.684;2023-05-12T11:12:08;100488.66;;;23.25;54.07
70468;BME280;57934;51.532;7.684;2023-05-12T11:14:41;100487.66;;;22.96;53.52
70468;BME280;57934;51.532;7.684;2023-05-12T11:17:08;100490.00;;;22.26;53.88
70468;BME280;57934;51.532;7.684;2023-05-12T11:19:36;100484.91;;;21.61;55.15
70468;BME280;57934;51.532;7.684;2023-05-12T11:22:08;100491.06;;;22.20;53.95
70468;BME280;57934;51.532;7.684;2023-05-12T11:24:36;100487.34;;;23.13;53.41
70468;BME280;57934;51.532;7.684;2023-05-12T11:27:03;100477.94;;;22.95;52.50
70468;BME280;57934;51.532;7.684;2023-05-12T11:29:30;100482.47;;;22.53;52.54
70468;BME280;57934;51.532;7.684;2023-05-12T11:31:57;100487.06;;;22.63;53.13
70468;BME280;57934;51.532;7.684;2023-05-12T11:34:28;100492.19;;;23.21;53.70
70468;BME280;57934;51.532;7.684;2023-05-12T11:36:58;100497.63;;;24.35;52.17
70468;BME280;57934;51.532;7.684;2023-05-12T11:39:27;100491.25;;;23.71;51.02
70468;BME280;57934;51.532;7.684;2023-05-12T11:42:02;100499.09;;;23.52;49.34
70468;BME280;57934;51.532;7.684;2023-05-12T11:44:31;100494.03;;;22.49;52.43
70468;BME280;57934;51.532;7.684;2023-05-12T11:47:10;100496.50;;;22.76;51.13
70468;BME280;57934;51.532;7.684;2023-05-12T11:49:49;100498.78;;;22.11;53.07
70468;BME280;57934;51.532;7.684;2023-05-12T11:52:18;100499.72;;;22.83;53.18
70468;BME280;57934;51.532;7.684;2023-05-12T11:54:54;100493.25;;;23.09;51.63
70468;BME280;57934;51.532;7.684;2023-05-12T11:57:30;100498.19;;;23.83;51.57
70468;BME280;57934;51.532;7.684;2023-05-12T12:00:02;100502.06;;;23.41;50.42
70468;BME280;57934;51.532;7.684;2023-05-12T12:02:32;100496.50;;;22.86;51.74
70468;BME280;57934;51.532;7.684;2023-05-12T12:04:59;100498.09;;;22.56;51.61
70468;BME280;57934;51.532;7.684;2023-05-12T12:07:32;100498.59;;;22.38;50.51
70468;BME280;57934;51.532;7.684;2023-05-12T12:10:19;100502.94;;;22.70;50.42
70468;BME280;57934;51.532;7.684;2023-05-12T12:12:47;100497.97;;;22.05;51.67
70468;BME280;57934;51.532;7.684;2023-05-12T12:15:13;100505.22;;;21.42;53.75
70468;BME280;57934;51.532;7.684;2023-05-12T12:17:40;100495.25;;;21.95;54.26
70468;BME280;57934;51.532;7.684;2023-05-12T12:20:09;100504.59;;;21.82;53.50
70468;BME280;57934;51.532;7.684;2023-05-12T12:22:36;100507.88;;;22.00;54.00
70468;BME280;57934;51.532;7.684;2023-05-12T12:25:03;100502.28;;;21.06;56.93
70468;BME280;57934;51.532;7.684;2023-05-12T12:27:31;100504.53;;;20.55;56.73
70468;BME280;57934;51.532;7.684;2023-05-12T12:29:57;100499.09;;;20.77;57.34
70468;BME280;57934;51.532;7.684;2023-05-12T12:32:24;100504.25;;;20.57;58.89
70468;BME280;57934;51.532;7.684;2023-05-12T12:34:51;100500.78;;;20.88;58.62
70468;BME280;57934;51.532;7.684;2023-05-12T12:37:18;100504.16;;;20.46;59.04
70468;BME280;57934;51.532;7.684;2023-05-12T12:39:46;100497.06;;;20.35;59.54
70468;BME280;57934;51.532;7.684;2023-05-12T12:42:13;100500.69;;;20.24;58.92
70468;BME280;57934;51.532;7.684;2023-05-12T12:44:40;100499.00;;;20.18;59.19
70468;BME280;57934;51.532;7.684;2023-05-12T12:47:07;100503.88;;;20.21;61.77
70468;BME280;57934;51.532;7.684;2023-05-12T12:49:33;100495.31;;;19.97;60.56
70468;BME280;57934;51.532;7.684;2023-05-12T12:52:01;100499.69;;;19.81;61.15
70468;BME280;57934;51.532;7.684;2023-05-12T12:54:27;100495.72;;;20.33;61.55
70468;BME280;57934;51.532;7.684;2023-05-12T12:56:56;100504.06;;;20.63;60.45
70468;BME280;57934;51.532;7.684;2023-05-12T12:59:24;100501.22;;;20.75;58.93